sensor_id;sensor_type;location;lat;lon;timestamp;P1;durP1;ratioP1;P2;durP2;ratioP2
18899;SDS011;9582;52.018;6.306;2024-03-02T00:00:44;1.97;;;1.23;;
18899;SDS011;9582;52.018;6.306;2024-03-02T00:03:11;2.50;;;1.30;;
18899;SDS011;9582;52.018;6.306;2024-03-02T00:05:39;2.87;;;1.40;;
18899;SDS011;9582;52.018;6.306;2024-03-02T00:08:07;2.60;;;1.30;;
18899;SDS011;9582;52.018;6.306;2024-03-02T00:10:36;5.00;;;1.40;;
18899;SDS011;9582;52.018;6.306;2024-03-02T00:13:05;2.03;;;1.43;;
18899;SDS011;9582;52.018;6.306;2024-03-02T00:15:39;2.33;;;1.00;;
18899;SDS011;9582;52.018;6.306;2024-03-02T00:18:09;1.30;;;0.77;;
18899;SDS011;9582;52.018;6.306;2024-03-02T00:20:37;1.50;;;1.20;;
18899;SDS011;9582;52.018;6.306;2024-03-02T00:23:04;3.43;;;1.03;;
18899;SDS011;9582;52.018;6.306;2024-03-02T00:25:40;1.13;;;1.00;;
18899;SDS011;9582;52.018;6.306;2024-03-02T00:28:17;1.80;;;1.40;;
18899;SDS011;9582;52.018;6.306;2024-03-02T00:30:51;1.20;;;1.07;;
18899;SDS011;9582;52.018;6.306;2024-03-02T00:33:26;2.67;;;1.30;;
18899;SDS011;9582;52.018;6.306;2024-03-02T00:35:54;2.47;;;1.10;;
18899;SDS011;9582;52.018;6.306;2024-03-02T00:38:21;1.27;;;1.00;;
18899;SDS011;9582;52.018;6.306;2024-03-02T00:40:49;2.10;;;1.40;;
18899;SDS011;9582;52.018;6.306;2024-03-02T00:46:19;1.80;;;1.30;;
18899;SDS011;9582;52.018;6.306;2024-03-02T00:48:55;3.73;;;1.47;;
18899;SDS011;9582;52.018;6.306;2024-03-02T00:51:24;2.50;;;1.53;;
18899;SDS011;9582;52.018;6.306;2024-03-02T00:53:51;2.30;;;1.37;;
18899;SDS011;9582;52.018;6.306;2024-03-02T00:56:22;3.13;;;1.40;;
18899;SDS011;9582;52.018;6.306;2024-03-02T00:58:49;3.27;;;1.50;;
18899;SDS011;9582;52.018;6.306;2024-03-02T01:01:17;0.63;;;0.63;;
18899;SDS011;9582;52.018;6.306;2024-03-02T01:03:45;1.50;;;1.17;;
18899;SDS011;9582;52.018;6.306;2024-03-02T01:06:11;1.17;;;1.00;;
18899;SDS011;9582;52.018;6.306;2024-03-02T01:08:38;4.37;;;1.40;;
18899;SDS011;9582;52.018;6.306;2024-03-02T01:11:05;2.60;;;1.20;;
18899;SDS011;9582;52.018;6.306;2024-03-02T01:13:33;3.47;;;1.70;;
18899;SDS011;9582;52.018;6.306;2024-03-02T01:16:00;1.57;;;1.10;;
18899;SDS011;9582;52.018;6.306;2024-03-02T01:18:27;1.13;;;1.03;;
18899;SDS011;9582;52.018;6.306;2024-03-02T01:20:54;2.80;;;1.67;;
18899;SDS011;9582;52.018;6.306;2024-03-02T01:23:21;3.63;;;1.63;;
18899;SDS011;9582;52.018;6.306;2024-03-02T01:25:48;2.30;;;1.20;;
18899;SDS011;9582;52.018;6.306;2024-03-02T01:28:15;2.83;;;1.60;;
18899;SDS011;9582;52.018;6.306;2024-03-02T01:30:43;3.70;;;1.77;;
18899;SDS011;9582;52.018;6.306;2024-03-02T01:33:10;1.40;;;1.10;;
18899;SDS011;9582;52.018;6.306;2024-03-02T01:35:37;2.10;;;1.30;;
18899;SDS011;9582;52.018;6.306;2024-03-02T01:38:03;2.10;;;1.40;;
18899;SDS011;9582;52.018;6.306;2024-03-02T01:40:32;3.17;;;1.90;;
18899;SDS011;9582;52.018;6.306;2024-03-02T01:42:59;2.80;;;1.40;;
18899;SDS011;9582;52.018;6.306;2024-03-02T01:45:27;3.83;;;1.43;;
18899;SDS011;9582;52.018;6.306;2024-03-02T01:47:55;2.17;;;1.20;;
18899;SDS011;9582;52.018;6.306;2024-03-02T01:50:25;2.83;;;1.30;;
18899;SDS011;9582;52.018;6.306;2024-03-02T01:52:53;2.20;;;1.43;;
18899;SDS011;9582;52.018;6.306;2024-03-02T01:55:20;3.43;;;1.33;;
18899;SDS011;9582;52.018;6.306;2024-03-02T01:57:47;1.97;;;1.20;;
18899;SDS011;9582;52.018;6.306;2024-03-02T02:00:16;2.47;;;1.10;;
18899;SDS011;9582;52.018;6.306;2024-03-02T02:02:43;2.17;;;1.10;;
18899;SDS011;9582;52.018;6.306;2024-03-02T02:05:11;2.83;;;1.33;;
18899;SDS011;9582;52.018;6.306;2024-03-02T02:07:38;2.63;;;1.57;;
18899;SDS011;9582;52.018;6.306;2024-03-02T02:10:05;3.70;;;1.40;;
18899;SDS011;9582;52.018;6.306;2024-03-02T02:12:32;2.07;;;1.23;;
18899;SDS011;9582;52.018;6.306;2024-03-02T02:14:59;2.17;;;1.50;;
18899;SDS011;9582;52.018;6.306;2024-03-02T02:17:25;2.53;;;1.43;;
18899;SDS011;9582;52.018;6.306;2024-03-02T02:19:52;1.67;;;1.30;;
18899;SDS011;9582;52.018;6.306;2024-03-02T02:22:20;2.83;;;1.33;;
18899;SDS011;9582;52.018;6.306;2024-03-02T02:24:47;3.00;;;1.40;;
18899;SDS011;9582;52.018;6.306;2024-03-02T02:27:13;2.07;;;1.50;;
18899;SDS011;9582;52.018;6.306;2024-03-02T02:29:40;2.80;;;1.20;;
18899;SDS011;9582;52.018;6.306;2024-03-02T02:32:07;2.27;;;1.23;;
18899;SDS011;9582;52.018;6.306;2024-03-02T02:34:34;2.70;;;1.13;;
18899;SDS011;9582;52.018;6.306;2024-03-02T02:37:00;1.93;;;0.90;;
18899;SDS011;9582;52.018;6.306;2024-03-02T02:39:28;3.13;;;1.20;;
18899;SDS011;9582;52.018;6.306;2024-03-02T02:41:55;1.97;;;1.00;;
18899;SDS011;9582;52.018;6.306;2024-03-02T02:44:22;1.87;;;1.10;;
18899;SDS011;9582;52.018;6.306;2024-03-02T02:46:49;0.90;;;0.70;;
18899;SDS011;9582;52.018;6.306;2024-03-02T02:49:15;1.23;;;0.90;;
18899;SDS011;9582;52.018;6.306;2024-03-02T02:51:42;0.90;;;0.63;;
18899;SDS011;9582;52.018;6.306;2024-03-02T02:54:09;1.57;;;0.70;;
18899;SDS011;9582;52.018;6.306;2024-03-02T02:56:37;1.57;;;0.90;;
18899;SDS011;9582;52.018;6.306;2024-03-02T02:59:03;2.00;;;1.00;;
18899;SDS011;9582;52.018;6.306;2024-03-02T03:01:30;2.23;;;1.00;;
18899;SDS011;9582;52.018;6.306;2024-03-02T03:03:56;0.77;;;0.70;;
18899;SDS011;9582;52.018;6.306;2024-03-02T03:06:23;1.20;;;0.60;;
18899;SDS011;9582;52.018;6.306;2024-03-02T03:08:50;1.13;;;0.70;;
18899;SDS011;9582;52.018;6.306;2024-03-02T03:11:15;0.77;;;0.60;;
18899;SDS011;9582;52.018;6.306;2024-03-02T03:13:43;1.13;;;0.80;;
18899;SDS011;9582;52.018;6.306;2024-03-02T03:16:10;1.13;;;0.80;;
18899;SDS011;9582;52.018;6.306;2024-03-02T03:18:37;1.77;;;0.80;;
18899;SDS011;9582;52.018;6.306;2024-03-02T03:21:03;1.30;;;0.50;;
18899;SDS011;9582;52.018;6.306;2024-03-02T03:23:30;2.03;;;0.90;;
18899;SDS011;9582;52.018;6.306;2024-03-02T03:25:56;2.10;;;0.70;;
18899;SDS011;9582;52.018;6.306;2024-03-02T03:28:23;0.90;;;0.57;;
18899;SDS011;9582;52.018;6.306;2024-03-02T03:30:51;2.30;;;0.70;;
18899;SDS011;9582;52.018;6.306;2024-03-02T03:33:18;3.20;;;0.70;;
18899;SDS011;9582;52.018;6.306;2024-03-02T03:35:44;0.73;;;0.70;;
18899;SDS011;9582;52.018;6.306;2024-03-02T03:38:11;0.70;;;0.60;;
18899;SDS011;9582;52.018;6.306;2024-03-02T03:40:38;0.57;;;0.57;;
18899;SDS011;9582;52.018;6.306;2024-03-02T03:43:04;1.20;;;0.50;;
18899;SDS011;9582;52.018;6.306;2024-03-02T03:45:31;1.10;;;0.70;;
18899;SDS011;9582;52.018;6.306;2024-03-02T03:47:59;0.47;;;0.47;;
18899;SDS011;9582;52.018;6.306;2024-03-02T03:50:25;0.50;;;0.50;;
18899;SDS011;9582;52.018;6.306;2024-03-02T03:52:52;0.73;;;0.57;;
18899;SDS011;9582;52.018;6.306;2024-03-02T03:55:19;0.57;;;0.40;;
18899;SDS011;9582;52.018;6.306;2024-03-02T03:57:45;0.93;;;0.60;;
18899;SDS011;9582;52.018;6.306;2024-03-02T04:00:12;0.90;;;0.60;;
18899;SDS011;9582;52.018;6.306;2024-03-02T04:02:40;1.23;;;0.60;;
18899;SDS011;9582;52.018;6.306;2024-03-02T04:05:08;0.40;;;0.40;;
18899;SDS011;9582;52.018;6.306;2024-03-02T04:07:36;0.40;;;0.40;;
18899;SDS011;9582;52.018;6.306;2024-03-02T04:10:08;1.30;;;0.50;;
18899;SDS011;9582;52.018;6.306;2024-03-02T04:12:36;0.50;;;0.40;;
18899;SDS011;9582;52.018;6.306;2024-03-02T04:15:04;1.80;;;0.47;;
18899;SDS011;9582;52.018;6.306;2024-03-02T04:17:31;1.17;;;0.50;;
18899;SDS011;9582;52.018;6.306;2024-03-02T04:20:00;0.40;;;0.40;;
18899;SDS011;9582;52.018;6.306;2024-03-02T04:22:32;1.50;;;0.60;;
18899;SDS011;9582;52.018;6.306;2024-03-02T04:25:00;0.30;;;0.30;;
18899;SDS011;9582;52.018;6.306;2024-03-02T04:27:29;0.30;;;0.30;;
18899;SDS011;9582;52.018;6.306;2024-03-02T04:29:56;0.40;;;0.40;;
18899;SDS011;9582;52.018;6.306;2024-03-02T04:32:23;0.43;;;0.30;;
18899;SDS011;9582;52.018;6.306;2024-03-02T04:34:49;0.30;;;0.30;;
18899;SDS011;9582;52.018;6.306;2024-03-02T04:37:16;0.77;;;0.43;;
18899;SDS011;9582;52.018;6.306;2024-03-02T04:39:44;0.73;;;0.50;;
18899;SDS011;9582;52.018;6.306;2024-03-02T04:42:10;0.50;;;0.50;;
18899;SDS011;9582;52.018;6.306;2024-03-02T04:44:37;0.33;;;0.30;;
18899;SDS011;9582;52.018;6.306;2024-03-02T04:47:04;0.67;;;0.50;;
18899;SDS011;9582;52.018;6.306;2024-03-02T04:49:31;0.77;;;0.40;;
18899;SDS011;9582;52.018;6.306;2024-03-02T04:51:58;1.13;;;0.40;;
18899;SDS011;9582;52.018;6.306;2024-03-02T04:54:24;1.10;;;0.30;;
18899;SDS011;9582;52.018;6.306;2024-03-02T04:56:52;0.53;;;0.37;;
18899;SDS011;9582;52.018;6.306;2024-03-02T04:59:19;0.30;;;0.30;;
18899;SDS011;9582;52.018;6.306;2024-03-02T05:01:46;0.80;;;0.40;;
18899;SDS011;9582;52.018;6.306;2024-03-02T05:04:13;1.17;;;0.40;;
18899;SDS011;9582;52.018;6.306;2024-03-02T05:06:40;0.50;;;0.40;;
18899;SDS011;9582;52.018;6.306;2024-03-02T05:09:07;1.03;;;0.53;;
18899;SDS011;9582;52.018;6.306;2024-03-02T05:11:34;1.77;;;0.33;;
18899;SDS011;9582;52.018;6.306;2024-03-02T05:14:25;1.23;;;0.53;;
18899;SDS011;9582;52.018;6.306;2024-03-02T05:16:51;1.13;;;0.43;;
18899;SDS011;9582;52.018;6.306;2024-03-02T05:19:18;0.60;;;0.30;;
18899;SDS011;9582;52.018;6.306;2024-03-02T05:21:44;0.43;;;0.40;;
18899;SDS011;9582;52.018;6.306;2024-03-02T05:24:11;0.30;;;0.30;;
18899;SDS011;9582;52.018;6.306;2024-03-02T05:26:37;0.50;;;0.43;;
18899;SDS011;9582;52.018;6.306;2024-03-02T05:29:04;0.83;;;0.33;;
18899;SDS011;9582;52.018;6.306;2024-03-02T05:31:32;0.50;;;0.40;;
18899;SDS011;9582;52.018;6.306;2024-03-02T05:33:58;0.30;;;0.30;;
18899;SDS011;9582;52.018;6.306;2024-03-02T05:36:25;0.40;;;0.40;;
18899;SDS011;9582;52.018;6.306;2024-03-02T05:38:52;0.73;;;0.33;;
18899;SDS011;9582;52.018;6.306;2024-03-02T05:41:18;1.70;;;0.40;;
18899;SDS011;9582;52.018;6.306;2024-03-02T05:43:45;0.90;;;0.70;;
18899;SDS011;9582;52.018;6.306;2024-03-02T05:46:12;1.47;;;0.50;;
18899;SDS011;9582;52.018;6.306;2024-03-02T05:48:40;1.00;;;0.30;;
18899;SDS011;9582;52.018;6.306;2024-03-02T05:51:07;0.67;;;0.50;;
18899;SDS011;9582;52.018;6.306;2024-03-02T05:53:33;0.77;;;0.50;;
18899;SDS011;9582;52.018;6.306;2024-03-02T05:56:03;0.30;;;0.30;;
18899;SDS011;9582;52.018;6.306;2024-03-02T05:58:30;0.83;;;0.50;;
18899;SDS011;9582;52.018;6.306;2024-03-02T06:01:08;0.47;;;0.40;;
18899;SDS011;9582;52.018;6.306;2024-03-02T06:03:34;3.07;;;0.90;;
18899;SDS011;9582;52.018;6.306;2024-03-02T06:06:03;2.80;;;1.10;;
18899;SDS011;9582;52.018;6.306;2024-03-02T06:08:30;0.57;;;0.47;;
18899;SDS011;9582;52.018;6.306;2024-03-02T06:10:57;0.93;;;0.40;;
18899;SDS011;9582;52.018;6.306;2024-03-02T06:13:23;1.67;;;0.60;;
18899;SDS011;9582;52.018;6.306;2024-03-02T06:15:51;1.13;;;0.70;;
18899;SDS011;9582;52.018;6.306;2024-03-02T06:18:18;2.00;;;0.70;;
18899;SDS011;9582;52.018;6.306;2024-03-02T06:20:44;1.33;;;0.50;;
18899;SDS011;9582;52.018;6.306;2024-03-02T06:23:12;1.13;;;0.50;;
18899;SDS011;9582;52.018;6.306;2024-03-02T06:25:39;1.20;;;0.60;;
18899;SDS011;9582;52.018;6.306;2024-03-02T06:28:06;0.73;;;0.57;;
18899;SDS011;9582;52.018;6.306;2024-03-02T06:30:32;0.77;;;0.50;;
18899;SDS011;9582;52.018;6.306;2024-03-02T06:32:59;0.73;;;0.50;;
18899;SDS011;9582;52.018;6.306;2024-03-02T06:35:25;2.60;;;0.40;;
18899;SDS011;9582;52.018;6.306;2024-03-02T06:37:52;1.07;;;0.60;;
18899;SDS011;9582;52.018;6.306;2024-03-02T06:40:20;1.30;;;0.50;;
18899;SDS011;9582;52.018;6.306;2024-03-02T06:42:47;1.97;;;0.87;;
18899;SDS011;9582;52.018;6.306;2024-03-02T06:45:13;0.47;;;0.47;;
18899;SDS011;9582;52.018;6.306;2024-03-02T06:47:40;1.37;;;0.60;;
18899;SDS011;9582;52.018;6.306;2024-03-02T06:50:07;2.43;;;1.07;;
18899;SDS011;9582;52.018;6.306;2024-03-02T06:52:34;0.77;;;0.43;;
18899;SDS011;9582;52.018;6.306;2024-03-02T06:55:01;0.80;;;0.50;;
18899;SDS011;9582;52.018;6.306;2024-03-02T06:57:30;0.40;;;0.40;;
18899;SDS011;9582;52.018;6.306;2024-03-02T06:59:57;0.63;;;0.50;;
18899;SDS011;9582;52.018;6.306;2024-03-02T07:02:24;1.97;;;0.60;;
18899;SDS011;9582;52.018;6.306;2024-03-02T07:04:52;0.93;;;0.43;;
18899;SDS011;9582;52.018;6.306;2024-03-02T07:07:18;1.03;;;0.60;;
18899;SDS011;9582;52.018;6.306;2024-03-02T07:09:46;0.80;;;0.70;;
18899;SDS011;9582;52.018;6.306;2024-03-02T07:12:12;2.83;;;0.80;;
18899;SDS011;9582;52.018;6.306;2024-03-02T07:14:40;1.00;;;0.90;;
18899;SDS011;9582;52.018;6.306;2024-03-02T07:17:25;2.20;;;0.90;;
18899;SDS011;9582;52.018;6.306;2024-03-02T07:19:52;1.50;;;0.80;;
18899;SDS011;9582;52.018;6.306;2024-03-02T07:22:18;0.60;;;0.60;;
18899;SDS011;9582;52.018;6.306;2024-03-02T07:24:45;0.90;;;0.70;;
18899;SDS011;9582;52.018;6.306;2024-03-02T07:27:12;0.90;;;0.80;;
18899;SDS011;9582;52.018;6.306;2024-03-02T07:29:41;0.60;;;0.60;;
18899;SDS011;9582;52.018;6.306;2024-03-02T07:32:08;1.37;;;0.80;;
18899;SDS011;9582;52.018;6.306;2024-03-02T07:34:36;0.90;;;0.70;;
18899;SDS011;9582;52.018;6.306;2024-03-02T07:37:03;0.80;;;0.70;;
18899;SDS011;9582;52.018;6.306;2024-03-02T07:39:31;2.93;;;0.77;;
18899;SDS011;9582;52.018;6.306;2024-03-02T07:41:57;1.17;;;0.90;;
18899;SDS011;9582;52.018;6.306;2024-03-02T07:44:24;0.80;;;0.80;;
18899;SDS011;9582;52.018;6.306;2024-03-02T07:46:52;1.27;;;0.70;;
18899;SDS011;9582;52.018;6.306;2024-03-02T07:49:19;1.40;;;0.83;;
18899;SDS011;9582;52.018;6.306;2024-03-02T07:51:45;1.70;;;1.00;;
18899;SDS011;9582;52.018;6.306;2024-03-02T07:54:12;2.23;;;1.20;;
18899;SDS011;9582;52.018;6.306;2024-03-02T07:56:39;0.93;;;0.70;;
18899;SDS011;9582;52.018;6.306;2024-03-02T07:59:05;3.67;;;1.20;;
18899;SDS011;9582;52.018;6.306;2024-03-02T08:01:32;1.13;;;0.77;;
18899;SDS011;9582;52.018;6.306;2024-03-02T08:04:01;1.67;;;0.87;;
18899;SDS011;9582;52.018;6.306;2024-03-02T08:06:29;1.10;;;0.70;;
18899;SDS011;9582;52.018;6.306;2024-03-02T08:08:56;1.27;;;0.93;;
18899;SDS011;9582;52.018;6.306;2024-03-02T08:11:23;2.73;;;0.93;;
18899;SDS011;9582;52.018;6.306;2024-03-02T08:13:50;1.10;;;0.90;;
18899;SDS011;9582;52.018;6.306;2024-03-02T08:16:17;1.13;;;0.90;;
18899;SDS011;9582;52.018;6.306;2024-03-02T08:18:45;2.20;;;0.90;;
18899;SDS011;9582;52.018;6.306;2024-03-02T08:21:13;1.77;;;0.90;;
18899;SDS011;9582;52.018;6.306;2024-03-02T08:23:41;1.07;;;0.90;;
18899;SDS011;9582;52.018;6.306;2024-03-02T08:26:08;1.47;;;0.70;;
18899;SDS011;9582;52.018;6.306;2024-03-02T08:28:35;0.87;;;0.87;;
18899;SDS011;9582;52.018;6.306;2024-03-02T08:31:03;3.13;;;1.10;;
18899;SDS011;9582;52.018;6.306;2024-03-02T08:33:29;2.77;;;1.40;;
18899;SDS011;9582;52.018;6.306;2024-03-02T08:35:56;1.53;;;1.00;;
18899;SDS011;9582;52.018;6.306;2024-03-02T08:38:24;1.60;;;1.00;;
18899;SDS011;9582;52.018;6.306;2024-03-02T08:40:51;1.07;;;0.90;;
18899;SDS011;9582;52.018;6.306;2024-03-02T08:43:18;1.90;;;0.80;;
18899;SDS011;9582;52.018;6.306;2024-03-02T08:45:47;1.30;;;0.90;;
18899;SDS011;9582;52.018;6.306;2024-03-02T08:48:14;0.97;;;0.83;;
18899;SDS011;9582;52.018;6.306;2024-03-02T08:50:41;2.10;;;0.70;;
18899;SDS011;9582;52.018;6.306;2024-03-02T08:53:07;1.23;;;0.93;;
18899;SDS011;9582;52.018;6.306;2024-03-02T08:55:35;1.07;;;0.80;;
18899;SDS011;9582;52.018;6.306;2024-03-02T08:58:02;1.90;;;1.00;;
18899;SDS011;9582;52.018;6.306;2024-03-02T09:00:29;1.73;;;0.67;;
18899;SDS011;9582;52.018;6.306;2024-03-02T09:02:56;1.53;;;0.90;;
18899;SDS011;9582;52.018;6.306;2024-03-02T09:05:22;1.97;;;0.90;;
18899;SDS011;9582;52.018;6.306;2024-03-02T09:07:49;1.07;;;0.80;;
18899;SDS011;9582;52.018;6.306;2024-03-02T09:10:15;1.90;;;0.80;;
18899;SDS011;9582;52.018;6.306;2024-03-02T09:12:43;1.07;;;0.70;;
18899;SDS011;9582;52.018;6.306;2024-03-02T09:15:10;1.60;;;0.77;;
18899;SDS011;9582;52.018;6.306;2024-03-02T09:17:37;1.00;;;0.80;;
18899;SDS011;9582;52.018;6.306;2024-03-02T09:20:04;1.23;;;0.70;;
18899;SDS011;9582;52.018;6.306;2024-03-02T09:22:31;2.57;;;1.20;;
18899;SDS011;9582;52.018;6.306;2024-03-02T09:24:58;1.50;;;0.80;;
18899;SDS011;9582;52.018;6.306;2024-03-02T09:27:24;3.00;;;0.93;;
18899;SDS011;9582;52.018;6.306;2024-03-02T09:29:52;2.40;;;0.70;;
18899;SDS011;9582;52.018;6.306;2024-03-02T09:32:19;1.73;;;1.07;;
18899;SDS011;9582;52.018;6.306;2024-03-02T09:34:46;3.27;;;1.00;;
18899;SDS011;9582;52.018;6.306;2024-03-02T09:37:13;3.03;;;1.10;;
18899;SDS011;9582;52.018;6.306;2024-03-02T09:39:40;2.27;;;1.00;;
18899;SDS011;9582;52.018;6.306;2024-03-02T09:42:09;2.30;;;0.90;;
18899;SDS011;9582;52.018;6.306;2024-03-02T09:44:36;2.20;;;0.80;;
18899;SDS011;9582;52.018;6.306;2024-03-02T09:47:04;1.27;;;0.80;;
18899;SDS011;9582;52.018;6.306;2024-03-02T09:49:32;2.63;;;0.70;;
18899;SDS011;9582;52.018;6.306;2024-03-02T09:51:59;2.27;;;0.80;;
18899;SDS011;9582;52.018;6.306;2024-03-02T09:54:27;2.07;;;0.70;;
18899;SDS011;9582;52.018;6.306;2024-03-02T09:56:54;1.63;;;0.63;;
18899;SDS011;9582;52.018;6.306;2024-03-02T09:59:20;1.87;;;0.70;;
18899;SDS011;9582;52.018;6.306;2024-03-02T10:01:57;2.10;;;0.87;;
18899;SDS011;9582;52.018;6.306;2024-03-02T10:04:26;1.87;;;0.63;;
18899;SDS011;9582;52.018;6.306;2024-03-02T10:07:09;3.37;;;1.10;;
18899;SDS011;9582;52.018;6.306;2024-03-02T10:09:37;4.67;;;0.80;;
18899;SDS011;9582;52.018;6.306;2024-03-02T10:12:04;3.47;;;0.67;;
18899;SDS011;9582;52.018;6.306;2024-03-02T10:14:31;2.17;;;1.10;;
18899;SDS011;9582;52.018;6.306;2024-03-02T10:17:01;1.57;;;0.70;;
18899;SDS011;9582;52.018;6.306;2024-03-02T10:19:30;2.80;;;0.90;;
18899;SDS011;9582;52.018;6.306;2024-03-02T10:21:58;1.60;;;0.90;;
18899;SDS011;9582;52.018;6.306;2024-03-02T10:24:24;2.60;;;1.00;;
18899;SDS011;9582;52.018;6.306;2024-03-02T10:26:51;1.43;;;0.80;;
18899;SDS011;9582;52.018;6.306;2024-03-02T10:29:18;1.40;;;0.73;;
18899;SDS011;9582;52.018;6.306;2024-03-02T10:31:45;2.20;;;0.60;;
18899;SDS011;9582;52.018;6.306;2024-03-02T10:34:12;3.70;;;1.00;;
18899;SDS011;9582;52.018;6.306;2024-03-02T10:36:43;1.93;;;0.80;;
18899;SDS011;9582;52.018;6.306;2024-03-02T10:39:10;1.30;;;0.60;;
18899;SDS011;9582;52.018;6.306;2024-03-02T10:41:39;2.10;;;0.87;;
18899;SDS011;9582;52.018;6.306;2024-03-02T10:44:06;3.20;;;0.77;;
18899;SDS011;9582;52.018;6.306;2024-03-02T10:46:33;1.40;;;1.10;;
18899;SDS011;9582;52.018;6.306;2024-03-02T10:49:01;1.67;;;0.77;;
18899;SDS011;9582;52.018;6.306;2024-03-02T10:51:30;1.53;;;0.70;;
18899;SDS011;9582;52.018;6.306;2024-03-02T10:53:59;1.87;;;0.90;;
18899;SDS011;9582;52.018;6.306;2024-03-02T10:56:28;2.27;;;1.17;;
18899;SDS011;9582;52.018;6.306;2024-03-02T10:58:55;2.40;;;1.00;;
18899;SDS011;9582;52.018;6.306;2024-03-02T11:01:29;1.70;;;0.80;;
18899;SDS011;9582;52.018;6.306;2024-03-02T11:03:58;2.30;;;0.60;;
18899;SDS011;9582;52.018;6.306;2024-03-02T11:06:25;1.93;;;0.90;;
18899;SDS011;9582;52.018;6.306;2024-03-02T11:08:54;2.30;;;0.90;;
18899;SDS011;9582;52.018;6.306;2024-03-02T11:11:27;3.23;;;0.90;;
18899;SDS011;9582;52.018;6.306;2024-03-02T11:14:00;1.90;;;0.95;;
18899;SDS011;9582;52.018;6.306;2024-03-02T11:16:33;1.10;;;0.60;;
18899;SDS011;9582;52.018;6.306;2024-03-02T11:19:01;1.50;;;0.75;;
18899;SDS011;9582;52.018;6.306;2024-03-02T11:21:30;3.10;;;0.90;;
18899;SDS011;9582;52.018;6.306;2024-03-02T11:23:58;1.92;;;0.80;;
18899;SDS011;9582;52.018;6.306;2024-03-02T11:26:28;4.13;;;0.77;;
18899;SDS011;9582;52.018;6.306;2024-03-02T11:28:55;1.73;;;0.75;;
18899;SDS011;9582;52.018;6.306;2024-03-02T11:34:28;2.80;;;0.90;;
18899;SDS011;9582;52.018;6.306;2024-03-02T11:36:55;1.65;;;0.75;;
18899;SDS011;9582;52.018;6.306;2024-03-02T11:39:22;2.42;;;1.02;;
18899;SDS011;9582;52.018;6.306;2024-03-02T11:41:50;1.40;;;0.77;;
18899;SDS011;9582;52.018;6.306;2024-03-02T11:44:17;2.20;;;0.90;;
18899;SDS011;9582;52.018;6.306;2024-03-02T11:46:45;2.08;;;0.90;;
18899;SDS011;9582;52.018;6.306;2024-03-02T11:49:13;1.15;;;0.80;;
18899;SDS011;9582;52.018;6.306;2024-03-02T11:51:49;1.55;;;0.95;;
18899;SDS011;9582;52.018;6.306;2024-03-02T11:54:26;1.13;;;1.00;;
18899;SDS011;9582;52.018;6.306;2024-03-02T11:56:56;1.55;;;0.80;;
18899;SDS011;9582;52.018;6.306;2024-03-02T11:59:23;1.00;;;0.80;;
18899;SDS011;9582;52.018;6.306;2024-03-02T12:01:50;1.27;;;0.88;;
18899;SDS011;9582;52.018;6.306;2024-03-02T12:04:17;2.05;;;0.82;;
18899;SDS011;9582;52.018;6.306;2024-03-02T12:06:44;2.55;;;1.00;;
18899;SDS011;9582;52.018;6.306;2024-03-02T12:09:12;1.70;;;1.05;;
18899;SDS011;9582;52.018;6.306;2024-03-02T12:11:40;1.30;;;1.20;;
18899;SDS011;9582;52.018;6.306;2024-03-02T12:14:11;2.25;;;1.10;;
18899;SDS011;9582;52.018;6.306;2024-03-02T12:16:38;2.85;;;1.30;;
18899;SDS011;9582;52.018;6.306;2024-03-02T12:19:09;3.28;;;1.15;;
18899;SDS011;9582;52.018;6.306;2024-03-02T12:21:36;3.17;;;1.10;;
18899;SDS011;9582;52.018;6.306;2024-03-02T12:24:02;1.67;;;1.20;;
18899;SDS011;9582;52.018;6.306;2024-03-02T12:26:29;3.75;;;1.35;;
18899;SDS011;9582;52.018;6.306;2024-03-02T12:28:56;2.40;;;1.10;;
18899;SDS011;9582;52.018;6.306;2024-03-02T12:31:25;2.00;;;1.23;;
18899;SDS011;9582;52.018;6.306;2024-03-02T12:33:52;1.45;;;0.90;;
18899;SDS011;9582;52.018;6.306;2024-03-02T12:36:18;2.60;;;0.98;;
18899;SDS011;9582;52.018;6.306;2024-03-02T12:38:45;1.38;;;0.82;;
18899;SDS011;9582;52.018;6.306;2024-03-02T12:41:14;1.55;;;0.98;;
18899;SDS011;9582;52.018;6.306;2024-03-02T12:43:41;2.17;;;1.27;;
18899;SDS011;9582;52.018;6.306;2024-03-02T12:46:07;1.10;;;0.90;;
18899;SDS011;9582;52.018;6.306;2024-03-02T12:48:35;1.73;;;0.93;;
18899;SDS011;9582;52.018;6.306;2024-03-02T12:51:06;2.65;;;0.90;;
18899;SDS011;9582;52.018;6.306;2024-03-02T12:53:32;1.75;;;0.90;;
18899;SDS011;9582;52.018;6.306;2024-03-02T12:55:59;1.10;;;0.70;;
18899;SDS011;9582;52.018;6.306;2024-03-02T12:58:26;4.50;;;0.90;;
18899;SDS011;9582;52.018;6.306;2024-03-02T13:01:05;1.45;;;0.75;;
18899;SDS011;9582;52.018;6.306;2024-03-02T13:03:35;1.70;;;0.98;;
18899;SDS011;9582;52.018;6.306;2024-03-02T13:06:03;1.13;;;0.70;;
18899;SDS011;9582;52.018;6.306;2024-03-02T13:08:31;2.28;;;0.90;;
18899;SDS011;9582;52.018;6.306;2024-03-02T13:10:57;1.23;;;0.70;;
18899;SDS011;9582;52.018;6.306;2024-03-02T13:13:24;2.97;;;1.02;;
18899;SDS011;9582;52.018;6.306;2024-03-02T13:15:54;1.25;;;0.70;;
18899;SDS011;9582;52.018;6.306;2024-03-02T13:18:21;1.92;;;0.90;;
18899;SDS011;9582;52.018;6.306;2024-03-02T13:20:50;1.90;;;0.65;;
18899;SDS011;9582;52.018;6.306;2024-03-02T13:23:16;2.53;;;0.90;;
18899;SDS011;9582;52.018;6.306;2024-03-02T13:25:43;1.60;;;0.82;;
18899;SDS011;9582;52.018;6.306;2024-03-02T13:28:12;2.80;;;0.90;;
18899;SDS011;9582;52.018;6.306;2024-03-02T13:30:39;1.85;;;1.05;;
18899;SDS011;9582;52.018;6.306;2024-03-02T13:33:06;2.42;;;0.90;;
18899;SDS011;9582;52.018;6.306;2024-03-02T13:35:33;2.35;;;1.00;;
18899;SDS011;9582;52.018;6.306;2024-03-02T13:38:00;3.03;;;0.90;;
18899;SDS011;9582;52.018;6.306;2024-03-02T13:40:27;2.10;;;1.27;;
18899;SDS011;9582;52.018;6.306;2024-03-02T13:42:55;1.80;;;0.90;;
18899;SDS011;9582;52.018;6.306;2024-03-02T13:45:22;2.95;;;1.23;;
18899;SDS011;9582;52.018;6.306;2024-03-02T13:47:48;2.80;;;1.00;;
18899;SDS011;9582;52.018;6.306;2024-03-02T13:50:15;4.63;;;1.25;;
18899;SDS011;9582;52.018;6.306;2024-03-02T13:52:42;2.63;;;1.10;;
18899;SDS011;9582;52.018;6.306;2024-03-02T13:55:10;2.63;;;1.35;;
18899;SDS011;9582;52.018;6.306;2024-03-02T13:57:36;3.58;;;1.08;;
18899;SDS011;9582;52.018;6.306;2024-03-02T14:00:04;2.25;;;1.25;;
18899;SDS011;9582;52.018;6.306;2024-03-02T14:02:37;1.85;;;1.45;;
18899;SDS011;9582;52.018;6.306;2024-03-02T14:05:04;1.75;;;1.35;;
18899;SDS011;9582;52.018;6.306;2024-03-02T14:07:31;2.45;;;1.10;;
18899;SDS011;9582;52.018;6.306;2024-03-02T14:09:57;1.98;;;1.20;;
18899;SDS011;9582;52.018;6.306;2024-03-02T14:12:25;2.95;;;1.25;;
18899;SDS011;9582;52.018;6.306;2024-03-02T14:14:52;2.65;;;1.10;;
18899;SDS011;9582;52.018;6.306;2024-03-02T14:17:20;1.55;;;1.00;;
18899;SDS011;9582;52.018;6.306;2024-03-02T14:19:47;1.92;;;1.00;;
18899;SDS011;9582;52.018;6.306;2024-03-02T14:22:13;2.75;;;1.20;;
18899;SDS011;9582;52.018;6.306;2024-03-02T14:24:42;2.60;;;1.13;;
18899;SDS011;9582;52.018;6.306;2024-03-02T14:27:09;1.88;;;1.20;;
18899;SDS011;9582;52.018;6.306;2024-03-02T14:29:37;1.98;;;1.05;;
18899;SDS011;9582;52.018;6.306;2024-03-02T14:32:05;3.63;;;1.10;;
18899;SDS011;9582;52.018;6.306;2024-03-02T14:34:33;2.97;;;1.30;;
18899;SDS011;9582;52.018;6.306;2024-03-02T14:36:59;3.45;;;1.50;;
18899;SDS011;9582;52.018;6.306;2024-03-02T14:39:27;3.13;;;1.50;;
18899;SDS011;9582;52.018;6.306;2024-03-02T14:41:54;2.22;;;1.40;;
18899;SDS011;9582;52.018;6.306;2024-03-02T14:44:21;4.00;;;1.60;;
18899;SDS011;9582;52.018;6.306;2024-03-02T14:46:49;3.03;;;1.52;;
18899;SDS011;9582;52.018;6.306;2024-03-02T14:49:16;2.58;;;1.75;;
18899;SDS011;9582;52.018;6.306;2024-03-02T14:51:43;1.83;;;1.60;;
18899;SDS011;9582;52.018;6.306;2024-03-02T14:54:10;4.40;;;1.58;;
18899;SDS011;9582;52.018;6.306;2024-03-02T14:56:37;3.47;;;1.50;;
18899;SDS011;9582;52.018;6.306;2024-03-02T14:59:03;4.82;;;1.58;;
18899;SDS011;9582;52.018;6.306;2024-03-02T15:01:30;2.42;;;1.73;;
18899;SDS011;9582;52.018;6.306;2024-03-02T15:03:58;3.47;;;1.40;;
18899;SDS011;9582;52.018;6.306;2024-03-02T15:06:25;3.40;;;1.65;;
18899;SDS011;9582;52.018;6.306;2024-03-02T15:08:51;2.20;;;1.58;;